sensor_id;sensor_type;location;lat;lon;timestamp;temperature;humidity
78619;DHT22;67941;52.506;5.470;2024-03-23T00:53:47;7.70;75.70
78619;DHT22;67941;52.506;5.470;2024-03-23T00:56:13;7.70;75.80
78619;DHT22;67941;52.506;5.470;2024-03-23T00:58:39;7.70;75.80
78619;DHT22;67941;52.506;5.470;2024-03-23T01:01:06;7.70;75.90
78619;DHT22;67941;52.506;5.470;2024-03-23T01:03:32;7.80;75.90
78619;DHT22;67941;52.506;5.470;2024-03-23T01:05:59;7.80;75.90
78619;DHT22;67941;52.506;5.470;2024-03-23T01:08:25;7.80;75.90
78619;DHT22;67941;52.506;5.470;2024-03-23T01:10:59;7.70;75.90
78619;DHT22;67941;52.506;5.470;2024-03-23T01:13:25;7.60;75.80
78619;DHT22;67941;52.506;5.470;2024-03-23T01:15:52;7.60;75.80
78619;DHT22;67941;52.506;5.470;2024-03-23T01:18:19;7.60;75.80
78619;DHT22;67941;52.506;5.470;2024-03-23T01:20:45;7.50;75.80
78619;DHT22;67941;52.506;5.470;2024-03-23T01:23:11;7.50;75.80
78619;DHT22;67941;52.506;5.470;2024-03-23T01:25:38;7.50;75.80
78619;DHT22;67941;52.506;5.470;2024-03-23T01:28:07;7.40;75.80
78619;DHT22;67941;52.506;5.470;2024-03-23T01:30:34;7.40;75.90
78619;DHT22;67941;52.506;5.470;2024-03-23T01:33:01;7.40;75.90
78619;DHT22;67941;52.506;5.470;2024-03-23T01:35:27;7.30;75.90
78619;DHT22;67941;52.506;5.470;2024-03-23T01:37:53;7.20;75.80
78619;DHT22;67941;52.506;5.470;2024-03-23T01:40:19;7.20;75.80
78619;DHT22;67941;52.506;5.470;2024-03-23T01:42:55;7.20;75.80
78619;DHT22;67941;52.506;5.470;2024-03-23T01:45:24;7.20;75.80
78619;DHT22;67941;52.506;5.470;2024-03-23T01:47:51;7.10;75.90
78619;DHT22;67941;52.506;5.470;2024-03-23T01:50:18;7.00;75.90
78619;DHT22;67941;52.506;5.470;2024-03-23T01:52:44;7.00;76.00
78619;DHT22;67941;52.506;5.470;2024-03-23T01:55:11;7.00;76.00
78619;DHT22;67941;52.506;5.470;2024-03-23T01:57:37;7.00;76.00
78619;DHT22;67941;52.506;5.470;2024-03-23T02:00:05;7.00;76.10
78619;DHT22;67941;52.506;5.470;2024-03-23T02:02:43;6.90;76.10
78619;DHT22;67941;52.506;5.470;2024-03-23T02:05:10;6.90;76.10
78619;DHT22;67941;52.506;5.470;2024-03-23T02:07:37;6.80;76.10
78619;DHT22;67941;52.506;5.470;2024-03-23T02:10:05;6.80;76.20
78619;DHT22;67941;52.506;5.470;2024-03-23T02:12:32;6.80;76.20
78619;DHT22;67941;52.506;5.470;2024-03-23T02:14:58;6.80;76.30
78619;DHT22;67941;52.506;5.470;2024-03-23T02:17:24;6.80;76.20
78619;DHT22;67941;52.506;5.470;2024-03-23T02:19:53;6.80;76.20
78619;DHT22;67941;52.506;5.470;2024-03-23T02:22:19;6.80;76.20
78619;DHT22;67941;52.506;5.470;2024-03-23T02:24:48;6.80;76.10
78619;DHT22;67941;52.506;5.470;2024-03-23T02:27:14;6.80;76.20
78619;DHT22;67941;52.506;5.470;2024-03-23T02:29:40;6.80;76.20
78619;DHT22;67941;52.506;5.470;2024-03-23T02:32:07;6.80;76.20
78619;DHT22;67941;52.506;5.470;2024-03-23T02:34:35;6.80;76.10
78619;DHT22;67941;52.506;5.470;2024-03-23T02:37:01;6.80;76.10
78619;DHT22;67941;52.506;5.470;2024-03-23T02:39:27;6.80;76.10
78619;DHT22;67941;52.506;5.470;2024-03-23T02:41:56;6.80;76.00
78619;DHT22;67941;52.506;5.470;2024-03-23T02:44:22;6.80;76.00
78619;DHT22;67941;52.506;5.470;2024-03-23T02:46:48;6.80;76.00
78619;DHT22;67941;52.506;5.470;2024-03-23T02:49:15;6.90;75.90
78619;DHT22;67941;52.506;5.470;2024-03-23T02:51:41;6.90;75.90
78619;DHT22;67941;52.506;5.470;2024-03-23T02:54:07;6.90;75.90
78619;DHT22;67941;52.506;5.470;2024-03-23T02:56:33;6.90;75.80
78619;DHT22;67941;52.506;5.470;2024-03-23T02:59:02;6.90;75.70
78619;DHT22;67941;52.506;5.470;2024-03-23T03:01:28;6.90;75.70
78619;DHT22;67941;52.506;5.470;2024-03-23T03:03:54;6.90;75.60
78619;DHT22;67941;52.506;5.470;2024-03-23T03:06:24;6.90;75.60
78619;DHT22;67941;52.506;5.470;2024-03-23T03:08:50;6.90;75.60
78619;DHT22;67941;52.506;5.470;2024-03-23T03:11:16;6.90;75.50
78619;DHT22;67941;52.506;5.470;2024-03-23T03:13:43;6.90;75.60
78619;DHT22;67941;52.506;5.470;2024-03-23T03:16:12;6.80;75.60
78619;DHT22;67941;52.506;5.470;2024-03-23T03:18:38;6.80;75.50
78619;DHT22;67941;52.506;5.470;2024-03-23T03:21:04;6.80;75.50
78619;DHT22;67941;52.506;5.470;2024-03-23T03:23:31;6.80;75.50
78619;DHT22;67941;52.506;5.470;2024-03-23T03:25:58;6.80;75.50
78619;DHT22;67941;52.506;5.470;2024-03-23T03:28:24;6.80;75.50
78619;DHT22;67941;52.506;5.470;2024-03-23T03:30:51;6.70;75.50
78619;DHT22;67941;52.506;5.470;2024-03-23T03:33:20;6.70;75.50
78619;DHT22;67941;52.506;5.470;2024-03-23T03:35:46;6.70;75.40
78619;DHT22;67941;52.506;5.470;2024-03-23T03:38:13;6.70;75.40
78619;DHT22;67941;52.506;5.470;2024-03-23T03:40:39;6.60;75.40
78619;DHT22;67941;52.506;5.470;2024-03-23T03:43:05;6.60;75.40
78619;DHT22;67941;52.506;5.470;2024-03-23T03:45:31;6.60;75.50
78619;DHT22;67941;52.506;5.470;2024-03-23T03:47:57;6.60;75.50
78619;DHT22;67941;52.506;5.470;2024-03-23T03:50:26;6.60;75.40
78619;DHT22;67941;52.506;5.470;2024-03-23T03:52:53;6.50;75.40
78619;DHT22;67941;52.506;5.470;2024-03-23T03:55:19;6.50;75.40
78619;DHT22;67941;52.506;5.470;2024-03-23T03:57:45;6.50;75.40
78619;DHT22;67941;52.506;5.470;2024-03-23T04:00:12;6.50;75.40
78619;DHT22;67941;52.506;5.470;2024-03-23T04:02:39;6.50;75.30
78619;DHT22;67941;52.506;5.470;2024-03-23T04:05:06;6.50;75.30
78619;DHT22;67941;52.506;5.470;2024-03-23T04:07:35;6.50;75.30
78619;DHT22;67941;52.506;5.470;2024-03-23T04:10:01;6.40;75.30
78619;DHT22;67941;52.506;5.470;2024-03-23T04:12:27;6.40;75.30
78619;DHT22;67941;52.506;5.470;2024-03-23T04:14:53;6.40;75.30
78619;DHT22;67941;52.506;5.470;2024-03-23T04:17:20;6.30;75.30
78619;DHT22;67941;52.506;5.470;2024-03-23T04:19:46;6.30;75.30
78619;DHT22;67941;52.506;5.470;2024-03-23T04:22:12;6.30;75.30
78619;DHT22;67941;52.506;5.470;2024-03-23T04:24:41;6.20;75.30
78619;DHT22;67941;52.506;5.470;2024-03-23T04:27:07;6.20;75.50
78619;DHT22;67941;52.506;5.470;2024-03-23T04:29:33;6.20;75.60
78619;DHT22;67941;52.506;5.470;2024-03-23T04:32:00;6.20;75.80
78619;DHT22;67941;52.506;5.470;2024-03-23T04:34:26;6.20;75.70
78619;DHT22;67941;52.506;5.470;2024-03-23T04:36:52;6.30;75.60
78619;DHT22;67941;52.506;5.470;2024-03-23T04:39:18;6.20;75.50
78619;DHT22;67941;52.506;5.470;2024-03-23T04:41:47;6.20;75.50
78619;DHT22;67941;52.506;5.470;2024-03-23T04:44:14;6.20;75.50
78619;DHT22;67941;52.506;5.470;2024-03-23T04:46:40;6.20;75.60
78619;DHT22;67941;52.506;5.470;2024-03-23T04:49:06;6.20;75.80
78619;DHT22;67941;52.506;5.470;2024-03-23T04:51:36;6.30;75.90
78619;DHT22;67941;52.506;5.470;2024-03-23T04:54:03;6.40;75.90
78619;DHT22;67941;52.506;5.470;2024-03-23T04:56:31;6.50;75.70
78619;DHT22;67941;52.506;5.470;2024-03-23T04:59:00;6.60;75.60
78619;DHT22;67941;52.506;5.470;2024-03-23T05:01:26;6.70;75.50
78619;DHT22;67941;52.506;5.470;2024-03-23T05:03:52;6.70;75.40
78619;DHT22;67941;52.506;5.470;2024-03-23T05:06:19;6.70;75.30
78619;DHT22;67941;52.506;5.470;2024-03-23T05:08:45;6.70;75.20
78619;DHT22;67941;52.506;5.470;2024-03-23T05:11:11;6.70;75.20
78619;DHT22;67941;52.506;5.470;2024-03-23T05:13:38;6.60;75.10
78619;DHT22;67941;52.506;5.470;2024-03-23T05:16:07;6.60;75.20
78619;DHT22;67941;52.506;5.470;2024-03-23T05:18:33;6.50;75.30
78619;DHT22;67941;52.506;5.470;2024-03-23T05:20:59;6.50;75.40
78619;DHT22;67941;52.506;5.470;2024-03-23T05:23:26;6.60;75.50
78619;DHT22;67941;52.506;5.470;2024-03-23T05:25:52;6.60;75.50
78619;DHT22;67941;52.506;5.470;2024-03-23T05:28:19;6.70;75.60
78619;DHT22;67941;52.506;5.470;2024-03-23T05:30:50;6.70;75.60
78619;DHT22;67941;52.506;5.470;2024-03-23T05:33:19;6.80;75.60
78619;DHT22;67941;52.506;5.470;2024-03-23T05:35:46;6.90;75.60
78619;DHT22;67941;52.506;5.470;2024-03-23T05:38:12;7.00;75.50
78619;DHT22;67941;52.506;5.470;2024-03-23T05:40:38;7.00;75.40
78619;DHT22;67941;52.506;5.470;2024-03-23T05:43:05;7.10;75.30
78619;DHT22;67941;52.506;5.470;2024-03-23T05:45:31;7.10;75.10
78619;DHT22;67941;52.506;5.470;2024-03-23T05:47:57;7.10;75.00
78619;DHT22;67941;52.506;5.470;2024-03-23T05:50:26;7.00;75.00
78619;DHT22;67941;52.506;5.470;2024-03-23T05:52:52;7.00;75.00
78619;DHT22;67941;52.506;5.470;2024-03-23T05:55:18;6.90;75.20
78619;DHT22;67941;52.506;5.470;2024-03-23T05:57:44;6.90;75.30
78619;DHT22;67941;52.506;5.470;2024-03-23T06:00:11;7.00;75.50
78619;DHT22;67941;52.506;5.470;2024-03-23T06:02:41;7.00;75.60
78619;DHT22;67941;52.506;5.470;2024-03-23T06:05:08;7.00;75.60
78619;DHT22;67941;52.506;5.470;2024-03-23T06:07:37;7.10;75.50
78619;DHT22;67941;52.506;5.470;2024-03-23T06:10:04;7.20;75.50
78619;DHT22;67941;52.506;5.470;2024-03-23T06:12:30;7.20;75.50
78619;DHT22;67941;52.506;5.470;2024-03-23T06:14:56;7.20;75.50
78619;DHT22;67941;52.506;5.470;2024-03-23T06:17:23;7.30;75.50
78619;DHT22;67941;52.506;5.470;2024-03-23T06:19:49;7.40;75.50
78619;DHT22;67941;52.506;5.470;2024-03-23T06:22:15;7.40;75.50
78619;DHT22;67941;52.506;5.470;2024-03-23T06:24:44;7.50;75.60
78619;DHT22;67941;52.506;5.470;2024-03-23T06:27:10;7.50;75.20
78619;DHT22;67941;52.506;5.470;2024-03-23T06:29:36;7.50;74.80
78619;DHT22;67941;52.506;5.470;2024-03-23T06:32:03;7.40;74.70
78619;DHT22;67941;52.506;5.470;2024-03-23T06:34:29;7.20;74.80
78619;DHT22;67941;52.506;5.470;2024-03-23T06:36:55;7.00;74.90
78619;DHT22;67941;52.506;5.470;2024-03-23T06:39:22;7.00;75.10
78619;DHT22;67941;52.506;5.470;2024-03-23T06:41:54;6.90;75.20
78619;DHT22;67941;52.506;5.470;2024-03-23T06:44:21;6.90;75.40
78619;DHT22;67941;52.506;5.470;2024-03-23T06:46:47;6.80;75.50
78619;DHT22;67941;52.506;5.470;2024-03-23T06:49:14;6.80;75.50
78619;DHT22;67941;52.506;5.470;2024-03-23T06:51:41;6.80;75.70
78619;DHT22;67941;52.506;5.470;2024-03-23T06:54:07;6.90;75.80
78619;DHT22;67941;52.506;5.470;2024-03-23T06:56:33;6.90;75.70
78619;DHT22;67941;52.506;5.470;2024-03-23T06:59:02;6.90;75.60
78619;DHT22;67941;52.506;5.470;2024-03-23T07:01:28;7.00;75.80
78619;DHT22;67941;52.506;5.470;2024-03-23T07:03:55;7.00;75.90
78619;DHT22;67941;52.506;5.470;2024-03-23T07:06:21;7.20;76.00
78619;DHT22;67941;52.506;5.470;2024-03-23T07:08:47;7.30;75.90
78619;DHT22;67941;52.506;5.470;2024-03-23T07:11:18;7.40;75.90
78619;DHT22;67941;52.506;5.470;2024-03-23T07:13:45;7.50;75.70
78619;DHT22;67941;52.506;5.470;2024-03-23T07:16:13;7.50;75.70
78619;DHT22;67941;52.506;5.470;2024-03-23T07:18:40;7.50;75.50
78619;DHT22;67941;52.506;5.470;2024-03-23T07:21:06;7.50;75.50
78619;DHT22;67941;52.506;5.470;2024-03-23T07:23:32;7.50;75.50
78619;DHT22;67941;52.506;5.470;2024-03-23T07:25:59;7.50;75.50
78619;DHT22;67941;52.506;5.470;2024-03-23T07:28:25;7.50;75.70
78619;DHT22;67941;52.506;5.470;2024-03-23T07:31:02;7.50;75.70
78619;DHT22;67941;52.506;5.470;2024-03-23T07:33:32;7.60;75.80
78619;DHT22;67941;52.506;5.470;2024-03-23T07:35:58;7.70;75.70
78619;DHT22;67941;52.506;5.470;2024-03-23T07:38:26;7.70;75.50
78619;DHT22;67941;52.506;5.470;2024-03-23T07:40:55;7.80;75.40
78619;DHT22;67941;52.506;5.470;2024-03-23T07:43:28;7.70;75.10
78619;DHT22;67941;52.506;5.470;2024-03-23T07:45:54;7.60;75.00
78619;DHT22;67941;52.506;5.470;2024-03-23T07:48:21;7.60;75.00
78619;DHT22;67941;52.506;5.470;2024-03-23T07:50:59;7.50;75.00
78619;DHT22;67941;52.506;5.470;2024-03-23T07:53:25;7.50;75.00
78619;DHT22;67941;52.506;5.470;2024-03-23T07:55:56;7.60;75.00
78619;DHT22;67941;52.506;5.470;2024-03-23T07:58:22;7.60;75.10
78619;DHT22;67941;52.506;5.470;2024-03-23T08:00:49;7.60;75.10
78619;DHT22;67941;52.506;5.470;2024-03-23T08:03:15;7.80;75.00
78619;DHT22;67941;52.506;5.470;2024-03-23T08:05:41;7.80;74.90
78619;DHT22;67941;52.506;5.470;2024-03-23T08:08:10;7.80;74.70
78619;DHT22;67941;52.506;5.470;2024-03-23T08:10:36;7.80;74.70
78619;DHT22;67941;52.506;5.470;2024-03-23T08:13:03;7.90;74.80
78619;DHT22;67941;52.506;5.470;2024-03-23T08:15:30;7.90;74.70
78619;DHT22;67941;52.506;5.470;2024-03-23T08:17:57;8.00;74.70
78619;DHT22;67941;52.506;5.470;2024-03-23T08:20:25;8.00;74.90
78619;DHT22;67941;52.506;5.470;2024-03-23T08:22:51;8.10;74.80
78619;DHT22;67941;52.506;5.470;2024-03-23T08:25:20;8.20;74.80
78619;DHT22;67941;52.506;5.470;2024-03-23T08:27:46;8.40;74.90
78619;DHT22;67941;52.506;5.470;2024-03-23T08:30:13;8.50;74.90
78619;DHT22;67941;52.506;5.470;2024-03-23T08:32:39;8.70;74.60
78619;DHT22;67941;52.506;5.470;2024-03-23T08:35:07;8.80;74.20
78619;DHT22;67941;52.506;5.470;2024-03-23T08:37:36;8.90;74.00
78619;DHT22;67941;52.506;5.470;2024-03-23T08:40:02;8.90;74.00
78619;DHT22;67941;52.506;5.470;2024-03-23T08:42:32;8.90;74.10
78619;DHT22;67941;52.506;5.470;2024-03-23T08:44:58;9.00;74.10
78619;DHT22;67941;52.506;5.470;2024-03-23T08:47:24;9.00;73.80
78619;DHT22;67941;52.506;5.470;2024-03-23T08:49:51;9.00;73.50
78619;DHT22;67941;52.506;5.470;2024-03-23T08:52:17;8.90;73.40
78619;DHT22;67941;52.506;5.470;2024-03-23T08:54:44;8.80;73.40
78619;DHT22;67941;52.506;5.470;2024-03-23T08:57:10;8.80;73.30
78619;DHT22;67941;52.506;5.470;2024-03-23T08:59:40;8.80;73.20
78619;DHT22;67941;52.506;5.470;2024-03-23T09:02:06;8.60;73.00
78619;DHT22;67941;52.506;5.470;2024-03-23T09:04:33;8.60;72.90
78619;DHT22;67941;52.506;5.470;2024-03-23T09:06:59;8.50;73.10
78619;DHT22;67941;52.506;5.470;2024-03-23T09:09:25;8.50;73.20
78619;DHT22;67941;52.506;5.470;2024-03-23T09:11:52;8.60;73.60
78619;DHT22;67941;52.506;5.470;2024-03-23T09:14:18;8.80;73.70
78619;DHT22;67941;52.506;5.470;2024-03-23T09:16:49;9.00;73.70
78619;DHT22;67941;52.506;5.470;2024-03-23T09:19:17;9.20;73.00
78619;DHT22;67941;52.506;5.470;2024-03-23T09:21:43;9.30;72.50
78619;DHT22;67941;52.506;5.470;2024-03-23T09:24:09;9.30;72.30
78619;DHT22;67941;52.506;5.470;2024-03-23T09:26:36;9.20;72.00
78619;DHT22;67941;52.506;5.470;2024-03-23T09:29:02;9.10;71.90
78619;DHT22;67941;52.506;5.470;2024-03-23T09:31:28;9.00;71.90
78619;DHT22;67941;52.506;5.470;2024-03-23T09:33:57;8.80;71.90
78619;DHT22;67941;52.506;5.470;2024-03-23T09:36:25;8.70;71.90
78619;DHT22;67941;52.506;5.470;2024-03-23T09:38:51;8.60;71.90
78619;DHT22;67941;52.506;5.470;2024-03-23T09:41:17;8.50;71.90
78619;DHT22;67941;52.506;5.470;2024-03-23T09:43:43;8.50;71.90
78619;DHT22;67941;52.506;5.470;2024-03-23T09:46:10;8.40;72.00
78619;DHT22;67941;52.506;5.470;2024-03-23T09:48:38;8.50;72.30
78619;DHT22;67941;52.506;5.470;2024-03-23T09:51:07;8.60;72.50
78619;DHT22;67941;52.506;5.470;2024-03-23T09:53:34;8.80;72.20
78619;DHT22;67941;52.506;5.470;2024-03-23T09:56:00;8.90;71.90
78619;DHT22;67941;52.506;5.470;2024-03-23T09:58:27;8.90;71.80
78619;DHT22;67941;52.506;5.470;2024-03-23T10:00:53;8.90;72.00
78619;DHT22;67941;52.506;5.470;2024-03-23T10:03:19;9.00;72.00
78619;DHT22;67941;52.506;5.470;2024-03-23T10:05:46;9.10;72.10
78619;DHT22;67941;52.506;5.470;2024-03-23T10:08:21;9.20;72.00
78619;DHT22;67941;52.506;5.470;2024-03-23T10:10:47;9.20;71.70
78619;DHT22;67941;52.506;5.470;2024-03-23T10:13:24;9.20;71.60
78619;DHT22;67941;52.506;5.470;2024-03-23T10:15:55;9.20;71.90
78619;DHT22;67941;52.506;5.470;2024-03-23T10:18:24;9.40;72.00
78619;DHT22;67941;52.506;5.470;2024-03-23T10:21:08;9.50;72.00
78619;DHT22;67941;52.506;5.470;2024-03-23T10:23:38;9.60;71.70
78619;DHT22;67941;52.506;5.470;2024-03-23T10:26:15;9.70;71.40
78619;DHT22;67941;52.506;5.470;2024-03-23T10:28:52;9.70;71.10
78619;DHT22;67941;52.506;5.470;2024-03-23T10:31:19;9.70;71.20
78619;DHT22;67941;52.506;5.470;2024-03-23T10:33:46;9.70;71.10
78619;DHT22;67941;52.506;5.470;2024-03-23T10:36:13;9.80;71.00
78619;DHT22;67941;52.506;5.470;2024-03-23T10:38:44;9.80;71.00
78619;DHT22;67941;52.506;5.470;2024-03-23T10:41:10;9.80;71.00
78619;DHT22;67941;52.506;5.470;2024-03-23T10:43:37;10.00;70.90
78619;DHT22;67941;52.506;5.470;2024-03-23T10:46:05;10.00;70.60
78619;DHT22;67941;52.506;5.470;2024-03-23T10:48:32;9.90;70.30
78619;DHT22;67941;52.506;5.470;2024-03-23T10:50:59;9.80;70.30
78619;DHT22;67941;52.506;5.470;2024-03-23T10:53:28;9.70;70.20
78619;DHT22;67941;52.506;5.470;2024-03-23T10:55:58;9.60;70.10
78619;DHT22;67941;52.506;5.470;2024-03-23T10:58:28;9.50;70.30
78619;DHT22;67941;52.506;5.470;2024-03-23T11:00:56;9.40;70.40
78619;DHT22;67941;52.506;5.470;2024-03-23T11:03:33;9.30;70.40
78619;DHT22;67941;52.506;5.470;2024-03-23T11:06:00;9.20;70.70
78619;DHT22;67941;52.506;5.470;2024-03-23T11:08:31;9.20;70.80
78619;DHT22;67941;52.506;5.470;2024-03-23T11:11:16;9.40;70.90
78619;DHT22;67941;52.506;5.470;2024-03-23T11:13:43;9.40;70.70
78619;DHT22;67941;52.506;5.470;2024-03-23T11:16:16;9.40;70.80
78619;DHT22;67941;52.506;5.470;2024-03-23T11:18:43;9.50;70.90
78619;DHT22;67941;52.506;5.470;2024-03-23T11:21:10;9.60;70.70
78619;DHT22;67941;52.506;5.470;2024-03-23T11:23:36;9.60;70.50
78619;DHT22;67941;52.506;5.470;2024-03-23T11:26:07;9.60;70.50
78619;DHT22;67941;52.506;5.470;2024-03-23T11:28:36;9.60;70.70
78619;DHT22;67941;52.506;5.470;2024-03-23T11:31:09;9.70;70.90
78619;DHT22;67941;52.506;5.470;2024-03-23T11:33:36;9.90;70.90
78619;DHT22;67941;52.506;5.470;2024-03-23T11:36:03;10.00;70.70
78619;DHT22;67941;52.506;5.470;2024-03-23T11:38:29;10.10;70.40
78619;DHT22;67941;52.506;5.470;2024-03-23T11:41:03;10.10;70.10
78619;DHT22;67941;52.506;5.470;2024-03-23T11:43:29;10.10;69.90
78619;DHT22;67941;52.506;5.470;2024-03-23T11:45:58;10.00;69.60
78619;DHT22;67941;52.506;5.470;2024-03-23T11:48:27;9.80;69.40
78619;DHT22;67941;52.506;5.470;2024-03-23T11:50:56;9.60;69.40
78619;DHT22;67941;52.506;5.470;2024-03-23T11:53:24;9.50;69.40
78619;DHT22;67941;52.506;5.470;2024-03-23T11:55:52;9.40;69.70
78619;DHT22;67941;52.506;5.470;2024-03-23T11:58:19;9.30;70.10
78619;DHT22;67941;52.506;5.470;2024-03-23T12:00:51;9.30;69.80
78619;DHT22;67941;52.506;5.470;2024-03-23T12:03:20;9.20;69.30
78619;DHT22;67941;52.506;5.470;2024-03-23T12:05:48;8.90;69.20
78619;DHT22;67941;52.506;5.470;2024-03-23T12:08:20;8.60;69.50
78619;DHT22;67941;52.506;5.470;2024-03-23T12:10:49;8.40;69.70
78619;DHT22;67941;52.506;5.470;2024-03-23T12:13:21;8.20;69.60
78619;DHT22;67941;52.506;5.470;2024-03-23T12:15:49;7.80;69.50
78619;DHT22;67941;52.506;5.470;2024-03-23T12:18:16;7.50;69.90
78619;DHT22;67941;52.506;5.470;2024-03-23T12:20:45;7.20;70.40
78619;DHT22;67941;52.506;5.470;2024-03-23T12:23:12;7.00;70.80
78619;DHT22;67941;52.506;5.470;2024-03-23T12:25:41;7.00;71.20
78619;DHT22;67941;52.506;5.470;2024-03-23T12:28:08;7.00;71.60
78619;DHT22;67941;52.506;5.470;2024-03-23T12:30:40;7.20;71.70
78619;DHT22;67941;52.506;5.470;2024-03-23T12:33:06;7.40;71.80
78619;DHT22;67941;52.506;5.470;2024-03-23T12:35:33;7.50;72.10
78619;DHT22;67941;52.506;5.470;2024-03-23T12:38:02;7.80;72.10
78619;DHT22;67941;52.506;5.470;2024-03-23T12:40:28;8.00;72.00
78619;DHT22;67941;52.506;5.470;2024-03-23T12:42:55;8.20;71.90
78619;DHT22;67941;52.506;5.470;2024-03-23T12:45:22;8.40;71.50
78619;DHT22;67941;52.506;5.470;2024-03-23T12:47:49;8.40;71.00
78619;DHT22;67941;52.506;5.470;2024-03-23T12:50:15;8.30;70.90
78619;DHT22;67941;52.506;5.470;2024-03-23T12:52:42;8.10;70.80
78619;DHT22;67941;52.506;5.470;2024-03-23T12:55:11;7.90;71.00
78619;DHT22;67941;52.506;5.470;2024-03-23T12:57:37;7.70;70.90
78619;DHT22;67941;52.506;5.470;2024-03-23T13:00:05;7.50;71.30
78619;DHT22;67941;52.506;5.470;2024-03-23T13:02:31;7.40;72.00
78619;DHT22;67941;52.506;5.470;2024-03-23T13:04:58;7.40;72.20
78619;DHT22;67941;52.506;5.470;2024-03-23T13:07:24;7.50;72.50
78619;DHT22;67941;52.506;5.470;2024-03-23T13:09:50;7.60;72.50
78619;DHT22;67941;52.506;5.470;2024-03-23T13:12:20;7.70;72.30
78619;DHT22;67941;52.506;5.470;2024-03-23T13:14:46;7.80;72.30
78619;DHT22;67941;52.506;5.470;2024-03-23T13:17:13;7.80;72.50
78619;DHT22;67941;52.506;5.470;2024-03-23T13:19:39;8.00;72.70
78619;DHT22;67941;52.506;5.470;2024-03-23T13:22:06;8.10;72.70
78619;DHT22;67941;52.506;5.470;2024-03-23T13:24:32;8.30;72.70
78619;DHT22;67941;52.506;5.470;2024-03-23T13:26:58;8.40;72.60
78619;DHT22;67941;52.506;5.470;2024-03-23T13:29:27;8.60;72.50
78619;DHT22;67941;52.506;5.470;2024-03-23T13:31:53;8.60;72.20
78619;DHT22;67941;52.506;5.470;2024-03-23T13:34:20;8.60;72.10
78619;DHT22;67941;52.506;5.470;2024-03-23T13:36:47;8.60;72.10
78619;DHT22;67941;52.506;5.470;2024-03-23T13:39:15;8.60;71.90
78619;DHT22;67941;52.506;5.470;2024-03-23T13:41:44;8.60;71.80
78619;DHT22;67941;52.506;5.470;2024-03-23T13:44:12;8.50;71.60
78619;DHT22;67941;52.506;5.470;2024-03-23T13:46:42;8.40;71.60
78619;DHT22;67941;52.506;5.470;2024-03-23T13:49:24;8.30;71.70
78619;DHT22;67941;52.506;5.470;2024-03-23T13:51:50;8.30;71.80
78619;DHT22;67941;52.506;5.470;2024-03-23T13:54:17;8.30;71.90
78619;DHT22;67941;52.506;5.470;2024-03-23T13:56:43;8.40;72.00
78619;DHT22;67941;52.506;5.470;2024-03-23T13:59:09;8.60;72.20
78619;DHT22;67941;52.506;5.470;2024-03-23T14:01:35;8.80;71.90
78619;DHT22;67941;52.506;5.470;2024-03-23T14:04:07;9.00;71.70
78619;DHT22;67941;52.506;5.470;2024-03-23T14:06:33;9.00;71.40
78619;DHT22;67941;52.506;5.470;2024-03-23T14:08:59;9.10;71.10
78619;DHT22;67941;52.506;5.470;2024-03-23T14:11:26;9.00;71.20
78619;DHT22;67941;52.506;5.470;2024-03-23T14:13:52;9.00;71.20
78619;DHT22;67941;52.506;5.470;2024-03-23T14:16:19;9.10;71.00
78619;DHT22;67941;52.506;5.470;2024-03-23T14:18:46;9.00;70.90
78619;DHT22;67941;52.506;5.470;2024-03-23T14:21:15;9.00;70.70
78619;DHT22;67941;52.506;5.470;2024-03-23T14:23:41;8.90;70.50
78619;DHT22;67941;52.506;5.470;2024-03-23T14:26:07;8.80;70.40
78619;DHT22;67941;52.506;5.470;2024-03-23T14:28:34;8.70;70.30
78619;DHT22;67941;52.506;5.470;2024-03-23T14:31:00;8.60;70.30
78619;DHT22;67941;52.506;5.470;2024-03-23T14:33:26;8.60;70.50
78619;DHT22;67941;52.506;5.470;2024-03-23T14:35:52;8.60;70.60
78619;DHT22;67941;52.506;5.470;2024-03-23T14:38:21;8.60;70.50
78619;DHT22;67941;52.506;5.470;2024-03-23T14:40:48;8.70;70.30
78619;DHT22;67941;52.506;5.470;2024-03-23T14:43:14;8.60;69.80
78619;DHT22;67941;52.506;5.470;2024-03-23T14:48:30;8.10;69.30
78619;DHT22;67941;52.506;5.470;2024-03-23T14:50:56;7.70;69.60
78619;DHT22;67941;52.506;5.470;2024-03-23T14:53:25;7.30;70.30
78619;DHT22;67941;52.506;5.470;2024-03-23T14:55:54;7.10;70.80
78619;DHT22;67941;52.506;5.470;2024-03-23T14:58:20;7.00;71.10
78619;DHT22;67941;52.506;5.470;2024-03-23T15:00:46;6.90;71.20
78619;DHT22;67941;52.506;5.470;2024-03-23T15:03:12;6.80;71.30
78619;DHT22;67941;52.506;5.470;2024-03-23T15:05:38;6.80;71.30
78619;DHT22;67941;52.506;5.470;2024-03-23T15:08:06;6.70;70.60
78619;DHT22;67941;52.506;5.470;2024-03-23T15:10:35;6.40;71.10
78619;DHT22;67941;52.506;5.470;2024-03-23T15:13:02;6.10;71.90
78619;DHT22;67941;52.506;5.470;2024-03-23T15:15:28;6.00;72.00
78619;DHT22;67941;52.506;5.470;2024-03-23T15:17:54;6.00;72.40
78619;DHT22;67941;52.506;5.470;2024-03-23T15:20:20;6.00;72.70
78619;DHT22;67941;52.506;5.470;2024-03-23T15:22:47;6.00;72.60
78619;DHT22;67941;52.506;5.470;2024-03-23T15:25:13;6.00;72.50
78619;DHT22;67941;52.506;5.470;2024-03-23T15:27:42;6.00;72.60
78619;DHT22;67941;52.506;5.470;2024-03-23T15:30:10;5.90;72.60
78619;DHT22;67941;52.506;5.470;2024-03-23T15:32:36;5.90;72.80
78619;DHT22;67941;52.506;5.470;2024-03-23T15:35:05;5.90;72.90
78619;DHT22;67941;52.506;5.470;2024-03-23T15:37:31;5.90;73.00
78619;DHT22;67941;52.506;5.470;2024-03-23T15:39:58;6.00;73.10
78619;DHT22;67941;52.506;5.470;2024-03-23T15:42:24;6.00;73.20
78619;DHT22;67941;52.506;5.470;2024-03-23T15:44:53;6.10;73.20
78619;DHT22;67941;52.506;5.470;2024-03-23T15:47:21;6.20;73.20
78619;DHT22;67941;52.506;5.470;2024-03-23T15:49:48;6.20;73.30
78619;DHT22;67941;52.506;5.470;2024-03-23T15:52:16;6.30;73.40
78619;DHT22;67941;52.506;5.470;2024-03-23T15:54:43;6.40;73.50
78619;DHT22;67941;52.506;5.470;2024-03-23T15:57:12;6.50;73.50
78619;DHT22;67941;52.506;5.470;2024-03-23T15:59:40;6.60;73.60
78619;DHT22;67941;52.506;5.470;2024-03-23T16:02:09;6.80;73.80
78619;DHT22;67941;52.506;5.470;2024-03-23T16:04:35;7.00;73.80
78619;DHT22;67941;52.506;5.470;2024-03-23T16:07:02;7.20;73.40
78619;DHT22;67941;52.506;5.470;2024-03-23T16:09:28;7.20;73.10
78619;DHT22;67941;52.506;5.470;2024-03-23T16:11:57;7.30;73.00
78619;DHT22;67941;52.506;5.470;2024-03-23T16:14:24;7.30;72.90
78619;DHT22;67941;52.506;5.470;2024-03-23T16:16:51;7.30;72.80
78619;DHT22;67941;52.506;5.470;2024-03-23T16:19:20;7.00;70.50
78619;DHT22;67941;52.506;5.470;2024-03-23T16:21:46;6.40;70.90
78619;DHT22;67941;52.506;5.470;2024-03-23T16:24:12;5.80;72.90
78619;DHT22;67941;52.506;5.470;2024-03-23T16:26:38;5.50;74.30
78619;DHT22;67941;52.506;5.470;2024-03-23T16:29:05;5.30;74.70
78619;DHT22;67941;52.506;5.470;2024-03-23T16:31:31;5.30;74.70
78619;DHT22;67941;52.506;5.470;2024-03-23T16:33:57;5.30;74.70
78619;DHT22;67941;52.506;5.470;2024-03-23T16:36:26;5.30;74.60
78619;DHT22;67941;52.506;5.470;2024-03-23T16:38:53;5.40;74.40
78619;DHT22;67941;52.506;5.470;2024-03-23T16:41:19;5.50;74.30